Woolsey, Georgia
Current Conditions -  °F | °C
As of 5:53 AM on Friday 19 Dec 2014 (Local Time) from KFFC Reporting Station
Haze Haze  
Wind Chill: 32°   Ceiling: Unl
Heat Index: 32°   Visibility: 5mi
Dew Point: 30°   Wind: 0mph
Humidity: 92%   Direction: NA
Pressure: 30.15"   Gusts: NA
Location:  33.4824°N, 84.4882°W
Report Text: KFFC 191053Z AUTO 00000KT 5SM BR CLR 00/M01 A3015 RMK AO2 SLP215 T00001011
Loading
Personal Weather Stations






























Interactive Weather Map New forecast layout! Learn more

10-Day Weather Forecast

Advertisements
Track Severe Weather on mobile